Time;durP1;ratioP1;P1;durP2;ratioP2;P2;SDS_P1;SDS_P2;PMS_P1;PMS_P2;Temp;Humidity;BMP_temperature;BMP_pressure;BME280_temperature;BME280_humidity;BME280_pressure;Samples;Min_cycle;Max_cycle;Signal;HPM_P1;HPM_P2
2021/03/29 00:00:34;;;;;;;3.30;1.70;;;12.80;99.90;;;;;;4973717;28;20193;-68
2021/03/29 00:03:02;;;;;;;2.08;1.55;;;12.80;99.90;;;;;;4972666;28;20209;-68
2021/03/29 00:05:31;;;;;;;5.40;1.70;;;12.80;99.90;;;;;;4972467;28;20209;-68
2021/03/29 00:08:00;;;;;;;3.25;1.20;;;12.80;99.90;;;;;;4976602;28;20259;-68
2021/03/29 00:10:28;;;;;;;1.70;1.25;;;12.80;99.90;;;;;;4975983;28;20270;-68
2021/03/29 00:12:55;;;;;;;2.20;1.38;;;12.70;99.90;;;;;;4972831;28;20649;-68
2021/03/29 00:15:26;;;;;;;4.78;1.48;;;12.70;99.90;;;;;;4983285;28;20205;-68
2021/03/29 00:17:53;;;;;;;2.60;1.58;;;12.70;99.90;;;;;;4976837;28;20197;-69
2021/03/29 00:20:23;;;;;;;2.67;1.65;;;12.70;99.90;;;;;;4971858;28;20208;-69
2021/03/29 00:22:50;;;;;;;3.08;1.48;;;12.70;99.90;;;;;;4979248;28;20236;-69
2021/03/29 00:25:18;;;;;;;4.18;1.95;;;12.70;99.90;;;;;;4973854;28;20286;-69
2021/03/29 00:27:44;;;;;;;2.30;1.40;;;12.70;99.90;;;;;;4971896;28;20222;-69
2021/03/29 00:30:14;;;;;;;2.22;1.40;;;12.70;99.90;;;;;;4971984;28;20194;-69
2021/03/29 00:32:43;;;;;;;2.17;1.52;;;12.70;99.90;;;;;;4971948;28;20197;-69
2021/03/29 00:35:11;;;;;;;1.95;1.30;;;12.60;99.90;;;;;;4971862;28;20202;-69
2021/03/29 00:37:41;;;;;;;5.28;1.50;;;12.70;99.90;;;;;;4972258;28;20201;-69
2021/03/29 00:40:10;;;;;;;2.45;1.77;;;12.60;99.90;;;;;;4971667;28;20208;-68
2021/03/29 00:42:38;;;;;;;2.95;1.85;;;12.60;99.90;;;;;;4972291;28;20813;-69
2021/03/29 00:45:05;;;;;;;4.78;1.20;;;12.60;99.90;;;;;;4971919;28;20206;-68
2021/03/29 00:47:32;;;;;;;1.98;1.42;;;12.60;99.90;;;;;;4980732;28;20289;-69
2021/03/29 00:49:58;;;;;;;2.88;1.67;;;12.60;99.90;;;;;;4989820;28;20513;-68
2021/03/29 00:52:26;;;;;;;1.95;1.25;;;12.60;99.90;;;;;;4985475;28;20198;-69
2021/03/29 00:54:54;;;;;;;1.80;1.38;;;12.60;99.90;;;;;;4971349;28;20205;-68
2021/03/29 00:57:22;;;;;;;3.67;1.60;;;12.50;99.90;;;;;;4971206;28;20198;-69
2021/03/29 00:59:48;;;;;;;2.80;1.75;;;12.60;99.90;;;;;;4971889;28;20660;-69
2021/03/29 01:02:14;;;;;;;1.80;1.52;;;12.50;99.90;;;;;;4972127;28;20258;-68
2021/03/29 01:04:41;;;;;;;4.20;1.58;;;12.50;99.90;;;;;;4970558;28;20204;-68
2021/03/29 01:07:07;;;;;;;2.90;1.50;;;12.50;99.90;;;;;;4971561;28;20226;-69
2021/03/29 01:09:34;;;;;;;3.72;1.75;;;12.50;99.90;;;;;;4979155;28;20557;-69
2021/03/29 01:12:03;;;;;;;3.30;1.73;;;12.50;99.90;;;;;;4971172;28;20255;-69
2021/03/29 01:14:32;;;;;;;2.60;1.20;;;12.50;99.90;;;;;;4982898;28;20193;-69
2021/03/29 01:17:05;;;;;;;5.53;1.70;;;12.50;99.90;;;;;;4976463;28;20206;-69
2021/03/29 01:19:47;;;;;;;2.55;1.50;;;12.50;99.90;;;;;;4971552;28;20584;-69
2021/03/29 01:22:15;;;;;;;2.38;1.30;;;12.50;99.90;;;;;;4971369;28;20238;-69
2021/03/29 01:24:49;;;;;;;4.20;2.20;;;12.50;99.90;;;;;;4970747;28;20638;-69
2021/03/29 01:27:21;;;;;;;2.88;1.75;;;12.40;99.90;;;;;;4970983;28;20193;-68
2021/03/29 01:29:50;;;;;;;2.35;1.25;;;12.40;99.90;;;;;;4970699;28;20202;-69
2021/03/29 01:32:16;;;;;;;2.88;1.52;;;12.40;99.90;;;;;;4977117;28;20224;-69
2021/03/29 01:34:43;;;;;;;2.78;1.50;;;12.40;99.90;;;;;;4971046;28;20202;-69
2021/03/29 01:37:11;;;;;;;3.28;1.70;;;12.40;99.90;;;;;;4971049;28;20205;-69
2021/03/29 01:39:39;;;;;;;2.88;1.85;;;12.40;99.90;;;;;;4970739;28;20197;-68
2021/03/29 01:42:07;;;;;;;3.30;1.67;;;12.40;99.90;;;;;;4974968;28;20200;-68
2021/03/29 01:44:35;;;;;;;2.90;1.15;;;12.40;99.90;;;;;;4990159;28;20217;-69
2021/03/29 01:47:01;;;;;;;2.60;1.48;;;12.40;99.90;;;;;;4979638;28;20224;-68
2021/03/29 01:49:28;;;;;;;5.03;1.77;;;12.40;99.90;;;;;;4976210;28;20254;-68
2021/03/29 01:51:55;;;;;;;3.78;1.67;;;12.40;99.90;;;;;;4988314;28;20216;-69
2021/03/29 01:54:22;;;;;;;3.22;1.40;;;12.30;99.90;;;;;;4988692;28;20201;-68
2021/03/29 01:56:48;;;;;;;3.90;1.52;;;12.30;99.90;;;;;;4988601;28;20579;-68
2021/03/29 01:59:15;;;;;;;2.95;1.77;;;12.30;99.90;;;;;;4980035;28;20197;-69
2021/03/29 02:01:42;;;;;;;2.75;1.50;;;12.30;99.90;;;;;;4975002;28;20208;-69
2021/03/29 02:04:09;;;;;;;4.50;1.70;;;12.30;99.90;;;;;;4970823;28;20206;-69
2021/03/29 02:06:36;;;;;;;3.22;1.65;;;12.30;99.90;;;;;;4977005;28;20198;-69
2021/03/29 02:09:05;;;;;;;4.30;2.15;;;12.30;99.90;;;;;;4972312;28;20577;-68
2021/03/29 02:11:32;;;;;;;4.60;1.40;;;12.30;99.90;;;;;;4984040;28;20591;-68
2021/03/29 02:14:00;;;;;;;3.10;1.42;;;12.30;99.90;;;;;;4988239;28;20534;-69
2021/03/29 02:16:28;;;;;;;3.60;1.70;;;12.30;99.90;;;;;;4985107;28;20202;-68
2021/03/29 02:18:57;;;;;;;4.22;1.75;;;12.30;99.90;;;;;;4973537;28;20198;-68
2021/03/29 02:21:26;;;;;;;3.65;2.10;;;12.30;99.90;;;;;;4970444;28;20201;-68
2021/03/29 02:23:56;;;;;;;2.83;1.80;;;12.30;99.90;;;;;;4973056;28;20236;-68
2021/03/29 02:26:24;;;;;;;3.40;1.52;;;12.20;99.90;;;;;;4978112;28;20289;-68
2021/03/29 02:28:51;;;;;;;3.78;1.75;;;12.20;99.90;;;;;;4970204;28;20229;-68
2021/03/29 02:31:18;;;;;;;1.83;1.55;;;12.20;99.90;;;;;;4970542;28;20205;-68
2021/03/29 02:33:45;;;;;;;4.13;1.50;;;12.20;99.90;;;;;;4970123;28;20209;-68
2021/03/29 02:36:13;;;;;;;3.15;1.80;;;12.20;99.90;;;;;;4970495;28;20250;-68
2021/03/29 02:38:39;;;;;;;2.63;1.35;;;12.20;99.90;;;;;;4970102;28;20189;-68
2021/03/29 02:41:06;;;;;;;1.98;1.60;;;12.20;99.90;;;;;;4975165;28;20224;-68
2021/03/29 02:43:33;;;;;;;2.20;1.27;;;12.20;99.90;;;;;;4970496;28;20209;-68
2021/03/29 02:46:01;;;;;;;6.22;1.70;;;12.20;99.90;;;;;;4969996;28;20266;-68
2021/03/29 02:48:33;;;;;;;5.22;1.70;;;12.10;99.90;;;;;;4969874;28;20268;-69
2021/03/29 02:50:59;;;;;;;1.90;1.33;;;12.20;99.90;;;;;;4968117;28;20198;-68
2021/03/29 02:53:30;;;;;;;2.55;1.60;;;12.20;99.90;;;;;;4969184;28;20208;-69
2021/03/29 02:56:01;;;;;;;2.17;1.60;;;12.10;99.90;;;;;;4982842;28;20212;-69
2021/03/29 02:58:29;;;;;;;2.92;1.90;;;12.10;99.90;;;;;;4973234;28;20197;-69
2021/03/29 03:00:56;;;;;;;3.25;1.85;;;12.10;99.90;;;;;;4969145;28;20201;-69
2021/03/29 03:03:23;;;;;;;3.75;2.75;;;12.10;99.90;;;;;;4969319;28;20650;-69
2021/03/29 03:05:51;;;;;;;2.35;1.45;;;12.10;99.90;;;;;;4969487;28;20209;-69
2021/03/29 03:08:18;;;;;;;2.97;1.60;;;12.10;99.90;;;;;;4969346;28;20209;-70
2021/03/29 03:10:45;;;;;;;2.58;1.60;;;12.10;99.90;;;;;;4978983;28;20289;-69
2021/03/29 03:13:12;;;;;;;4.85;1.58;;;12.10;99.90;;;;;;4984197;28;20209;-69
2021/03/29 03:15:39;;;;;;;4.90;2.00;;;12.10;99.90;;;;;;4973693;28;20243;-68
2021/03/29 03:18:07;;;;;;;2.97;1.60;;;12.10;99.90;;;;;;4984353;28;20193;-68
2021/03/29 03:20:36;;;;;;;2.08;1.42;;;12.10;99.90;;;;;;4969119;28;20579;-68
2021/03/29 03:23:05;;;;;;;2.05;1.80;;;12.10;99.90;;;;;;4969375;28;20236;-69
2021/03/29 03:25:34;;;;;;;3.65;1.40;;;12.10;99.90;;;;;;4969320;28;20255;-69
2021/03/29 03:28:04;;;;;;;3.45;1.70;;;12.10;99.90;;;;;;4969714;28;20651;-69
2021/03/29 03:30:33;;;;;;;2.58;1.77;;;12.10;99.90;;;;;;4969411;28;20197;-69
2021/03/29 03:33:00;;;;;;;4.30;1.80;;;12.00;99.90;;;;;;4969810;28;20259;-68
2021/03/29 03:35:28;;;;;;;4.93;1.95;;;12.10;99.90;;;;;;4980561;28;20778;-69
2021/03/29 03:37:57;;;;;;;4.13;1.70;;;12.00;99.90;;;;;;4985765;28;20593;-68
2021/03/29 03:40:24;;;;;;;2.95;1.33;;;12.00;99.90;;;;;;4972030;28;20243;-68
2021/03/29 03:42:54;;;;;;;3.47;1.73;;;12.00;99.90;;;;;;4969182;28;20580;-69
2021/03/29 03:45:25;;;;;;;5.18;1.75;;;12.00;99.90;;;;;;4981299;28;20193;-69
2021/03/29 03:47:53;;;;;;;4.10;1.70;;;12.00;99.90;;;;;;4975932;28;20214;-69
2021/03/29 03:50:19;;;;;;;5.30;2.00;;;12.00;99.90;;;;;;4969036;28;20209;-70
2021/03/29 03:52:46;;;;;;;2.63;2.10;;;12.00;99.90;;;;;;4979017;28;20212;-70
2021/03/29 03:55:15;;;;;;;2.58;1.50;;;12.00;99.90;;;;;;4971562;28;20208;-69
2021/03/29 03:57:41;;;;;;;3.60;1.80;;;11.90;99.90;;;;;;4969100;28;20197;-69
2021/03/29 04:00:11;;;;;;;1.85;1.52;;;12.00;99.90;;;;;;4969470;28;20201;-69
2021/03/29 04:02:38;;;;;;;4.40;2.00;;;11.90;99.90;;;;;;4972984;28;20235;-68
2021/03/29 04:05:05;;;;;;;3.17;1.70;;;11.90;99.90;;;;;;4985538;28;20254;-69
2021/03/29 04:07:31;;;;;;;4.10;1.70;;;11.90;99.90;;;;;;4988154;28;20212;-69
2021/03/29 04:10:02;;;;;;;1.90;1.52;;;11.90;99.90;;;;;;4984664;28;20203;-68
2021/03/29 04:12:28;;;;;;;3.70;1.52;;;11.90;99.90;;;;;;4980880;28;20197;-68
2021/03/29 04:14:54;;;;;;;4.60;1.92;;;11.90;99.90;;;;;;4986736;28;20284;-68
2021/03/29 04:17:21;;;;;;;2.38;1.60;;;11.90;99.90;;;;;;4979166;28;20196;-68
2021/03/29 04:19:48;;;;;;;4.47;1.42;;;11.90;99.90;;;;;;4975568;28;20213;-68
2021/03/29 04:22:14;;;;;;;2.92;2.08;;;11.90;99.90;;;;;;4970590;28;20228;-69
2021/03/29 04:24:40;;;;;;;3.17;1.52;;;11.90;99.90;;;;;;4976355;28;20189;-69
2021/03/29 04:27:07;;;;;;;2.67;1.55;;;11.90;99.90;;;;;;4984647;28;20208;-69
2021/03/29 04:29:33;;;;;;;2.00;1.40;;;11.90;99.90;;;;;;4988203;28;20220;-68
2021/03/29 04:31:59;;;;;;;3.50;1.83;;;11.90;99.90;;;;;;4987758;28;20209;-68
2021/03/29 04:34:25;;;;;;;3.20;1.90;;;11.90;99.90;;;;;;4979903;28;20198;-69
2021/03/29 04:36:52;;;;;;;2.00;1.42;;;11.90;99.90;;;;;;4968660;28;20201;-68
2021/03/29 04:39:19;;;;;;;4.97;1.92;;;11.80;99.90;;;;;;4976820;28;20205;-69
2021/03/29 04:41:45;;;;;;;2.95;1.73;;;11.80;99.90;;;;;;4988196;28;20927;-69
2021/03/29 04:44:11;;;;;;;4.90;2.13;;;11.80;99.90;;;;;;4971932;28;20279;-69
2021/03/29 04:46:37;;;;;;;2.05;1.75;;;11.80;99.90;;;;;;4971576;28;20209;-69
2021/03/29 04:49:04;;;;;;;1.92;1.52;;;11.80;99.90;;;;;;4976255;28;20269;-69
2021/03/29 04:51:30;;;;;;;2.90;1.80;;;11.80;99.90;;;;;;4989783;28;20292;-69
2021/03/29 04:53:57;;;;;;;3.80;1.60;;;11.80;99.90;;;;;;4991130;28;20216;-69
2021/03/29 04:56:23;;;;;;;2.88;1.30;;;11.80;99.90;;;;;;4984646;28;20215;-69
2021/03/29 04:58:50;;;;;;;3.92;1.90;;;11.80;99.90;;;;;;4988999;28;20280;-69
2021/03/29 05:01:16;;;;;;;5.50;2.35;;;11.80;99.90;;;;;;4971425;28;20213;-69
2021/03/29 05:03:42;;;;;;;3.75;2.15;;;11.80;99.90;;;;;;4971151;28;20290;-69
2021/03/29 05:06:08;;;;;;;4.00;2.80;;;11.70;99.90;;;;;;4990168;28;20212;-69
2021/03/29 05:08:34;;;;;;;4.13;1.90;;;11.70;99.90;;;;;;4990285;28;20282;-69
2021/03/29 05:11:02;;;;;;;4.25;1.65;;;11.70;99.90;;;;;;4980904;28;20545;-69
2021/03/29 05:13:28;;;;;;;3.38;1.40;;;11.70;99.90;;;;;;4983261;28;20217;-69
2021/03/29 05:15:54;;;;;;;2.30;1.58;;;11.70;99.90;;;;;;4989852;28;20192;-69
2021/03/29 05:18:20;;;;;;;2.63;1.30;;;11.70;99.90;;;;;;4979233;28;20206;-69
2021/03/29 05:20:47;;;;;;;3.03;2.10;;;11.70;99.90;;;;;;4971387;28;20225;-69
2021/03/29 05:23:13;;;;;;;2.53;1.65;;;11.70;99.90;;;;;;4971119;28;20729;-69
2021/03/29 05:25:39;;;;;;;3.08;1.70;;;11.70;99.90;;;;;;4980940;28;20205;-69
2021/03/29 05:28:06;;;;;;;3.90;1.90;;;11.70;99.90;;;;;;4972823;28;20209;-69
2021/03/29 05:30:33;;;;;;;3.55;2.13;;;11.70;99.90;;;;;;4985527;28;20258;-69
2021/03/29 05:32:59;;;;;;;3.28;1.73;;;11.70;99.90;;;;;;4989097;28;20197;-69
2021/03/29 05:35:25;;;;;;;2.30;1.50;;;11.60;99.90;;;;;;4990003;28;20242;-69
2021/03/29 05:37:51;;;;;;;3.30;1.63;;;11.70;99.90;;;;;;4987045;28;20233;-69
2021/03/29 05:40:18;;;;;;;3.00;1.90;;;11.70;99.90;;;;;;4980416;28;20198;-69
2021/03/29 05:42:44;;;;;;;2.42;1.52;;;11.70;99.90;;;;;;4970986;28;20629;-69
2021/03/29 05:45:13;;;;;;;2.22;1.42;;;11.70;99.90;;;;;;4979105;28;20205;-69
2021/03/29 05:47:40;;;;;;;3.17;1.67;;;11.70;99.90;;;;;;4977914;28;20205;-69
2021/03/29 05:50:09;;;;;;;3.55;1.80;;;11.70;99.90;;;;;;4970054;28;20235;-69
2021/03/29 05:52:35;;;;;;;1.23;1.10;;;11.70;99.90;;;;;;4971103;28;20347;-69
2021/03/29 05:55:02;;;;;;;2.60;2.05;;;11.70;99.90;;;;;;4971803;28;20205;-69
2021/03/29 05:57:37;;;;;;;2.03;1.67;;;11.70;99.90;;;;;;4971085;28;20198;-69
2021/03/29 06:00:45;;;;;;;3.90;1.73;;;11.70;99.90;;;;;;4974097;28;20680;-69
2021/03/29 06:03:20;;;;;;;5.18;2.30;;;11.60;99.90;;;;;;4988522;28;20207;-69
2021/03/29 06:05:46;;;;;;;3.83;2.78;;;11.70;99.90;;;;;;4972411;28;20247;-69
2021/03/29 06:08:13;;;;;;;8.63;2.75;;;11.70;99.90;;;;;;4970887;28;20221;-69
2021/03/29 06:10:39;;;;;;;3.38;1.58;;;11.70;99.90;;;;;;4972153;28;20550;-69
2021/03/29 06:13:15;;;;;;;7.13;2.03;;;11.70;99.90;;;;;;4971128;28;20633;-68
2021/03/29 06:15:41;;;;;;;2.35;1.50;;;11.80;99.90;;;;;;4978657;28;20197;-69
2021/03/29 06:18:11;;;;;;;4.47;2.05;;;11.80;99.90;;;;;;4987652;28;20200;-69
2021/03/29 06:21:03;;;;;;;2.95;1.67;;;11.90;99.90;;;;;;4989175;28;20216;-69
2021/03/29 06:23:30;;;;;;;2.88;1.85;;;11.80;99.90;;;;;;4971588;28;20236;-68
2021/03/29 06:26:16;;;;;;;2.00;1.52;;;11.80;99.90;;;;;;4983666;28;20282;-69
2021/03/29 06:28:43;;;;;;;8.65;1.92;;;11.80;99.90;;;;;;4973871;28;20197;-69
2021/03/29 06:31:23;;;;;;;3.30;1.90;;;11.80;99.90;;;;;;4978774;28;20197;-69
2021/03/29 06:33:51;;;;;;;3.85;1.60;;;11.80;99.90;;;;;;4985035;28;20625;-69
2021/03/29 06:36:42;;;;;;;7.93;2.15;;;11.90;99.90;;;;;;4976553;28;20216;-69
2021/03/29 06:39:13;;;;;;;4.60;2.20;;;12.10;99.90;;;;;;4997810;28;20208;-70
2021/03/29 06:41:39;;;;;;;2.58;1.73;;;12.30;99.90;;;;;;4981710;28;20201;-69
2021/03/29 06:44:07;;;;;;;2.35;1.58;;;12.50;99.90;;;;;;4988170;28;20205;-69
2021/03/29 06:46:33;;;;;;;6.22;1.63;;;12.80;99.90;;;;;;4986996;28;20619;-68
2021/03/29 06:49:01;;;;;;;7.65;2.55;;;13.00;99.90;;;;;;4989194;28;20526;-69
2021/03/29 06:51:30;;;;;;;5.60;2.65;;;13.10;99.90;;;;;;4988279;28;20674;-69
2021/03/29 06:54:01;;;;;;;3.22;1.58;;;13.30;99.90;;;;;;4987553;28;20416;-69
2021/03/29 06:56:32;;;;;;;1.90;1.38;;;13.40;99.90;;;;;;4974356;28;20197;-69
2021/03/29 06:59:08;;;;;;;5.88;2.33;;;13.40;99.90;;;;;;4977670;28;20769;-69
2021/03/29 07:01:36;;;;;;;2.25;1.40;;;13.40;99.90;;;;;;4977129;28;20209;-69
2021/03/29 07:04:04;;;;;;;2.65;1.52;;;13.30;99.90;;;;;;4973056;28;20197;-69
2021/03/29 07:06:31;;;;;;;5.90;2.05;;;13.30;99.90;;;;;;4981260;28;20208;-69
2021/03/29 07:09:05;;;;;;;2.65;2.17;;;13.30;99.90;;;;;;4978449;28;20230;-69
2021/03/29 07:11:32;;;;;;;7.22;2.67;;;13.40;99.90;;;;;;4982070;28;20196;-69
2021/03/29 07:13:59;;;;;;;6.32;2.13;;;13.30;99.90;;;;;;4976487;28;20593;-69
2021/03/29 07:16:27;;;;;;;5.43;3.40;;;13.30;99.90;;;;;;4978644;28;20305;-69
2021/03/29 07:18:57;;;;;;;3.85;1.92;;;13.20;99.90;;;;;;4973811;28;20968;-70
2021/03/29 07:21:23;;;;;;;3.13;1.70;;;13.20;99.90;;;;;;4981593;28;20201;-70
2021/03/29 07:23:51;;;;;;;4.00;2.17;;;13.30;99.90;;;;;;4975374;28;20237;-70
2021/03/29 07:26:36;;;;;;;7.07;2.25;;;13.30;99.90;;;;;;4980513;28;20227;-70
2021/03/29 07:29:17;;;;;;;2.72;1.90;;;13.50;99.90;;;;;;4979724;28;20559;-69
2021/03/29 07:31:44;;;;;;;4.00;2.13;;;13.70;99.90;;;;;;4981287;28;20200;-70
2021/03/29 07:34:11;;;;;;;5.68;2.58;;;13.90;99.90;;;;;;4973742;28;20212;-69
2021/03/29 07:36:45;;;;;;;5.10;1.95;;;14.00;99.90;;;;;;4976875;28;20205;-69
2021/03/29 07:39:13;;;;;;;3.83;1.55;;;14.20;99.80;;;;;;4968696;28;20197;-69
2021/03/29 07:41:40;;;;;;;9.23;2.28;;;14.40;99.30;;;;;;4973141;28;20194;-69
2021/03/29 07:44:13;;;;;;;4.32;1.70;;;14.50;98.80;;;;;;4988035;28;20219;-69
2021/03/29 07:46:40;;;;;;;4.63;2.30;;;14.60;98.60;;;;;;4974353;28;20220;-69
2021/03/29 07:49:40;;;;;;;3.67;2.05;;;14.80;98.20;;;;;;4971720;28;20282;-71
2021/03/29 07:52:25;;;;;;;5.72;2.30;;;14.90;97.60;;;;;;4970669;28;20211;-70
2021/03/29 07:54:54;;;;;;;3.45;2.03;;;15.00;97.30;;;;;;4984709;28;20525;-69
2021/03/29 07:57:58;;;;;;;3.92;1.75;;;15.10;97.20;;;;;;4980883;28;20291;-69
2021/03/29 08:00:59;;;;;;;3.78;1.70;;;15.20;96.80;;;;;;4968648;28;20181;-69
2021/03/29 08:03:40;;;;;;;5.90;2.63;;;15.10;96.70;;;;;;4988608;28;20215;-69
2021/03/29 08:06:07;;;;;;;3.45;1.80;;;15.10;96.90;;;;;;4972744;28;20211;-69
2021/03/29 08:08:41;;;;;;;4.88;1.77;;;15.00;97.20;;;;;;4986043;28;20644;-69
2021/03/29 08:11:13;;;;;;;5.25;1.95;;;15.00;97.30;;;;;;4968703;28;20693;-69
2021/03/29 08:13:42;;;;;;;4.80;2.30;;;15.10;97.00;;;;;;4970660;28;20217;-69
2021/03/29 08:16:10;;;;;;;5.45;1.80;;;15.20;97.00;;;;;;4971915;28;20197;-69
2021/03/29 08:19:14;;;;;;;3.85;1.58;;;15.30;96.90;;;;;;4972149;28;20293;-69
2021/03/29 08:21:48;;;;;;;5.43;2.17;;;15.30;96.40;;;;;;4985122;28;20304;-69
2021/03/29 08:24:23;;;;;;;4.43;1.80;;;15.40;96.10;;;;;;4984356;28;20913;-70
2021/03/29 08:26:51;;;;;;;5.80;1.65;;;15.50;96.20;;;;;;4990218;28;20695;-69
2021/03/29 08:29:29;;;;;;;3.97;1.40;;;15.50;95.80;;;;;;4977136;28;20229;-69
2021/03/29 08:32:10;;;;;;;3.95;1.65;;;15.50;95.70;;;;;;4972310;28;20202;-70
2021/03/29 08:34:42;;;;;;;3.47;1.73;;;15.50;95.70;;;;;;4983820;28;20549;-69
2021/03/29 08:37:09;;;;;;;5.10;1.80;;;15.50;95.80;;;;;;4983341;28;20189;-69
2021/03/29 08:39:38;;;;;;;3.15;2.15;;;15.50;95.80;;;;;;4973587;28;20200;-69
2021/03/29 08:42:06;;;;;;;3.75;1.80;;;15.50;95.90;;;;;;4976607;28;20198;-69
2021/03/29 08:44:36;;;;;;;1.90;1.60;;;15.50;95.90;;;;;;4991151;28;20197;-69
2021/03/29 08:47:08;;;;;;;5.65;2.60;;;15.30;96.00;;;;;;4986087;28;20815;-69
2021/03/29 08:49:34;;;;;;;5.18;1.50;;;15.30;96.40;;;;;;4980509;28;20321;-69
2021/03/29 08:52:00;;;;;;;4.47;1.60;;;15.20;96.50;;;;;;4972030;28;20194;-69
2021/03/29 08:54:27;;;;;;;4.43;1.83;;;15.20;96.60;;;;;;4975492;28;20210;-69
2021/03/29 08:57:02;;;;;;;3.17;1.48;;;15.20;96.80;;;;;;4982775;28;20201;-69
2021/03/29 08:59:28;;;;;;;6.55;1.92;;;15.20;96.30;;;;;;4991499;28;20177;-68
2021/03/29 09:01:56;;;;;;;5.40;1.42;;;15.30;95.70;;;;;;4976594;28;20550;-69
2021/03/29 09:04:22;;;;;;;3.60;1.85;;;15.40;96.00;;;;;;4978429;28;20584;-69
2021/03/29 09:06:56;;;;;;;8.73;2.35;;;15.40;95.70;;;;;;4978884;28;20206;-68
2021/03/29 09:09:23;;;;;;;5.03;1.55;;;15.50;95.40;;;;;;4983738;28;20282;-69
2021/03/29 09:11:51;;;;;;;4.97;1.60;;;15.50;95.20;;;;;;4982233;28;20292;-69
2021/03/29 09:14:19;;;;;;;2.45;1.70;;;15.60;95.10;;;;;;4977132;28;20262;-69
2021/03/29 09:16:46;;;;;;;2.83;1.73;;;15.70;94.60;;;;;;4979407;28;20236;-69
2021/03/29 09:19:15;;;;;;;2.17;1.35;;;15.70;94.60;;;;;;4983436;28;20641;-69
2021/03/29 09:21:41;;;;;;;3.65;1.70;;;15.70;94.50;;;;;;4984739;28;20220;-69
2021/03/29 09:24:23;;;;;;;6.15;1.40;;;15.70;94.20;;;;;;4979528;28;20233;-69
2021/03/29 09:27:01;;;;;;;5.10;1.75;;;15.80;94.10;;;;;;4978803;28;20201;-69
2021/03/29 09:29:32;;;;;;;3.42;1.70;;;15.80;94.00;;;;;;4988759;28;20228;-69
2021/03/29 09:32:06;;;;;;;4.85;1.55;;;15.80;94.00;;;;;;4982491;28;20201;-69
2021/03/29 09:34:35;;;;;;;4.78;1.88;;;15.80;93.80;;;;;;4977042;28;20193;-68
2021/03/29 09:37:02;;;;;;;5.60;1.75;;;15.80;93.60;;;;;;4974216;28;20247;-69
2021/03/29 09:39:30;;;;;;;4.13;1.60;;;15.80;93.10;;;;;;4973192;28;20198;-69
2021/03/29 09:41:57;;;;;;;4.82;1.70;;;15.80;93.20;;;;;;4971192;28;20213;-69
2021/03/29 09:44:26;;;;;;;3.33;1.65;;;15.80;93.50;;;;;;4970932;28;20201;-69
2021/03/29 09:46:54;;;;;;;4.07;1.83;;;15.80;93.20;;;;;;4977171;28;20753;-69
2021/03/29 09:49:20;;;;;;;2.30;1.38;;;15.80;93.20;;;;;;4990410;28;20220;-68
2021/03/29 09:51:49;;;;;;;3.35;2.40;;;15.80;93.30;;;;;;4989104;28;20212;-68
2021/03/29 09:54:24;;;;;;;6.65;1.52;;;15.80;93.30;;;;;;4980493;28;20219;-68
2021/03/29 09:56:50;;;;;;;2.65;1.65;;;15.80;93.20;;;;;;4982083;28;20280;-67
2021/03/29 09:59:28;;;;;;;3.15;1.90;;;15.80;92.80;;;;;;4976626;28;20645;-69
2021/03/29 10:01:54;;;;;;;2.65;1.30;;;15.80;93.40;;;;;;4976709;28;20233;-69
2021/03/29 10:04:22;;;;;;;10.50;2.75;;;15.80;93.10;;;;;;4987209;28;20209;-68
2021/03/29 10:06:54;;;;;;;4.82;1.65;;;15.80;93.10;;;;;;4989532;28;20208;-68
2021/03/29 10:09:34;;;;;;;4.75;1.90;;;15.80;93.20;;;;;;4987165;28;20229;-68
2021/03/29 10:12:05;;;;;;;5.40;2.55;;;15.80;92.90;;;;;;4989305;28;20208;-68
2021/03/29 10:14:33;;;;;;;3.33;1.98;;;15.80;92.60;;;;;;4987986;28;20517;-68
2021/03/29 10:16:59;;;;;;;4.60;1.98;;;15.80;92.70;;;;;;4977168;28;20196;-68
2021/03/29 10:19:33;;;;;;;4.32;2.25;;;15.80;92.40;;;;;;4989888;28;20201;-68
2021/03/29 10:22:08;;;;;;;4.60;1.52;;;15.80;92.20;;;;;;4972355;28;20228;-68
2021/03/29 10:24:36;;;;;;;4.50;1.98;;;15.80;92.20;;;;;;4970524;28;20193;-69
2021/03/29 10:27:05;;;;;;;4.18;1.88;;;15.80;92.20;;;;;;4970136;28;20235;-68
2021/03/29 10:29:41;;;;;;;4.20;1.70;;;15.80;92.20;;;;;;4972049;28;20228;-68
2021/03/29 10:32:10;;;;;;;2.92;1.60;;;15.80;91.90;;;;;;4979798;28;20259;-68
2021/03/29 10:34:38;;;;;;;4.93;2.13;;;15.80;92.00;;;;;;4968897;28;20919;-68
2021/03/29 10:37:19;;;;;;;3.72;2.10;;;15.80;92.30;;;;;;4972048;28;20198;-68
2021/03/29 10:39:45;;;;;;;6.88;2.15;;;15.80;91.80;;;;;;4968981;28;20592;-68
2021/03/29 10:42:12;;;;;;;4.07;2.05;;;15.80;92.00;;;;;;4969270;28;20209;-69
2021/03/29 10:44:38;;;;;;;7.47;1.80;;;15.80;92.00;;;;;;4987186;28;20212;-69
2021/03/29 10:47:04;;;;;;;3.45;1.70;;;15.80;91.90;;;;;;4987074;28;20204;-68
2021/03/29 10:49:31;;;;;;;4.90;2.20;;;15.80;91.40;;;;;;4988422;28;20217;-68
2021/03/29 10:51:57;;;;;;;7.25;2.30;;;15.80;91.50;;;;;;4987358;28;20680;-68
2021/03/29 10:54:24;;;;;;;5.55;2.13;;;15.70;91.80;;;;;;4986556;28;20197;-69
2021/03/29 10:56:50;;;;;;;5.30;2.13;;;15.80;91.80;;;;;;4985055;28;20205;-68
2021/03/29 10:59:16;;;;;;;3.72;2.15;;;15.80;91.60;;;;;;4977732;28;20204;-68
2021/03/29 11:01:42;;;;;;;3.50;2.67;;;15.80;92.00;;;;;;4980111;28;20201;-68
2021/03/29 11:04:09;;;;;;;3.83;1.85;;;15.80;92.20;;;;;;4981004;28;20212;-68
2021/03/29 11:06:35;;;;;;;3.45;1.38;;;15.80;91.90;;;;;;4983695;28;20210;-68
2021/03/29 11:09:01;;;;;;;2.55;1.50;;;15.80;92.00;;;;;;4977229;28;20217;-69
2021/03/29 11:11:28;;;;;;;3.95;1.95;;;15.80;91.90;;;;;;4979389;28;20904;-69
2021/03/29 11:13:54;;;;;;;8.05;1.92;;;15.80;92.00;;;;;;4968355;28;20205;-68
2021/03/29 11:16:22;;;;;;;5.35;2.15;;;15.80;92.20;;;;;;4971560;28;20212;-69
2021/03/29 11:18:48;;;;;;;3.70;1.75;;;15.80;91.50;;;;;;4975138;28;20223;-68
2021/03/29 11:21:14;;;;;;;3.15;1.55;;;15.80;91.10;;;;;;4982922;28;20205;-68
2021/03/29 11:23:40;;;;;;;7.30;1.83;;;15.80;91.20;;;;;;4976119;28;20233;-68
2021/03/29 11:26:07;;;;;;;3.10;1.73;;;15.80;90.80;;;;;;4976611;28;20667;-69
2021/03/29 11:28:34;;;;;;;4.95;2.00;;;15.80;90.80;;;;;;4977059;28;20221;-69
2021/03/29 11:31:01;;;;;;;4.05;2.00;;;15.80;91.20;;;;;;4981892;28;20671;-69
2021/03/29 11:33:27;;;;;;;4.63;2.60;;;15.80;91.40;;;;;;4979858;28;20205;-68
2021/03/29 11:35:53;;;;;;;3.88;2.00;;;15.80;91.40;;;;;;4982653;28;20205;-69
2021/03/29 11:38:19;;;;;;;3.20;1.90;;;15.90;90.90;;;;;;4973263;28;20667;-70
2021/03/29 11:40:46;;;;;;;3.70;2.00;;;15.90;90.60;;;;;;4969500;28;20537;-68
2021/03/29 11:43:12;;;;;;;3.50;2.20;;;15.90;90.60;;;;;;4976095;28;20636;-69
2021/03/29 11:45:40;;;;;;;3.58;1.95;;;15.90;90.70;;;;;;4980229;28;20686;-68
2021/03/29 11:48:06;;;;;;;5.13;2.00;;;15.90;90.20;;;;;;4980746;28;20204;-67
2021/03/29 11:50:33;;;;;;;4.78;1.70;;;15.90;90.40;;;;;;4971164;28;20585;-68
2021/03/29 11:52:59;;;;;;;4.07;2.15;;;15.90;90.10;;;;;;4976203;28;20756;-69
2021/03/29 11:55:26;;;;;;;3.92;2.03;;;15.90;90.00;;;;;;4984142;28;20219;-68
2021/03/29 11:57:54;;;;;;;2.85;1.60;;;15.90;89.20;;;;;;4987411;28;20304;-68
2021/03/29 12:00:25;;;;;;;4.00;1.90;;;16.00;89.20;;;;;;5051795;28;20199;-69
2021/03/29 12:02:59;;;;;;;4.82;1.90;;;16.00;90.00;;;;;;4968019;28;20208;-69
2021/03/29 12:05:28;;;;;;;4.82;2.08;;;16.00;88.90;;;;;;4975179;28;20196;-68
2021/03/29 12:13:32;;;;;;;5.15;1.88;;;16.00;86.60;;;;;;4984094;28;20193;-68
2021/03/29 12:16:00;;;;;;;3.38;1.50;;;16.00;86.10;;;;;;4976209;28;20205;-68
2021/03/29 12:18:36;;;;;;;3.95;1.50;;;16.00;85.20;;;;;;4969667;28;20212;-68
2021/03/29 12:21:03;;;;;;;1.60;1.27;;;16.00;85.20;;;;;;4968289;28;20197;-68
2021/03/29 12:23:30;;;;;;;1.75;1.40;;;16.00;85.10;;;;;;4972733;28;20722;-68
2021/03/29 12:25:57;;;;;;;3.22;1.80;;;16.00;84.70;;;;;;4973616;28;20220;-68
2021/03/29 12:28:26;;;;;;;3.47;1.60;;;16.00;83.70;;;;;;4970158;28;20217;-68
2021/03/29 12:30:53;;;;;;;7.07;1.65;;;16.00;84.00;;;;;;4971770;28;20210;-69
2021/03/29 12:33:19;;;;;;;5.22;2.05;;;16.00;83.50;;;;;;4967703;28;20240;-68
2021/03/29 12:35:47;;;;;;;5.75;2.00;;;16.10;82.70;;;;;;4975364;28;20202;-68
2021/03/29 12:38:13;;;;;;;3.65;1.35;;;16.00;83.10;;;;;;4984941;28;20274;-68
2021/03/29 12:40:42;;;;;;;2.75;1.67;;;16.10;80.90;;;;;;4983647;28;20682;-68
2021/03/29 12:43:12;;;;;;;6.70;1.60;;;16.10;80.90;;;;;;4986955;28;20208;-68
2021/03/29 12:45:42;;;;;;;3.38;1.48;;;16.10;81.20;;;;;;4983153;28;20741;-68
2021/03/29 12:48:10;;;;;;;3.92;1.83;;;16.10;81.60;;;;;;4967624;28;20205;-68
2021/03/29 12:50:36;;;;;;;2.75;1.48;;;16.10;80.40;;;;;;4973793;28;20288;-68
2021/03/29 12:53:04;;;;;;;2.65;1.45;;;16.10;80.30;;;;;;4977339;28;20200;-68
2021/03/29 12:55:30;;;;;;;4.80;1.60;;;16.10;80.70;;;;;;4967508;28;20729;-68
2021/03/29 12:57:58;;;;;;;1.90;1.73;;;16.10;80.30;;;;;;4968194;28;20213;-68
2021/03/29 13:00:26;;;;;;;1.90;1.45;;;16.10;80.90;;;;;;4970839;28;20197;-68
2021/03/29 13:02:55;;;;;;;3.15;1.30;;;16.10;80.40;;;;;;4979360;28;20227;-68